Praha, Texas
Current Conditions -  °F | °C
As of 6:15 AM on Tuesday 27 Jan 2015 (Local Time) from K3T5 Reporting Station
Clear Clear  
Wind Chill: 47°   Ceiling: Unl
Heat Index: 47°   Visibility: 10mi
Dew Point: 40°   Wind: 3mph
Humidity: 78%   Direction: 230°SW
Pressure: 30.13"   Gusts: NA
Location:  29.7626°N, 97.1228°W
Report Text: K3T5 271215Z AUTO 23003KT 10SM CLR 08/05 A3013 RMK AO2 T00840047
Loading
Personal Weather Stations






























Interactive Weather Map New forecast layout! Learn more

10-Day Weather Forecast

Advertisements
Track Severe Weather on mobile